Time;durP1;ratioP1;P1;durP2;ratioP2;P2;SDS_P1;SDS_P2;PMS_P1;PMS_P2;Temp;Humidity;BMP_temperature;BMP_pressure;BME280_temperature;BME280_humidity;BME280_pressure;Samples;Min_cycle;Max_cycle;Signal;HPM_P1;HPM_P2
2022/01/30 00:00:13;;;;;;;0.10;0.10;;;6.70;99.90;;;;;;4933512;29;20297;-71
2022/01/30 00:02:41;;;;;;;0.10;0.10;;;6.70;99.90;;;;;;4933491;29;20218;-70
2022/01/30 00:05:10;;;;;;;0.10;0.10;;;6.80;99.90;;;;;;4925971;29;20211;-71
2022/01/30 00:07:38;;;;;;;0.10;0.10;;;6.80;99.90;;;;;;4931817;29;20273;-70
2022/01/30 00:10:10;;;;;;;0.10;0.10;;;6.80;99.90;;;;;;4929023;29;20202;-70
2022/01/30 00:12:45;;;;;;;0.10;0.10;;;6.80;99.90;;;;;;4914942;29;20210;-71
2022/01/30 00:15:15;;;;;;;0.10;0.10;;;6.80;99.90;;;;;;4933752;29;20202;-71
2022/01/30 00:17:48;;;;;;;0.10;0.10;;;6.80;99.90;;;;;;4933287;29;20203;-70
2022/01/30 00:20:20;;;;;;;0.10;0.10;;;6.90;99.90;;;;;;4933509;29;20214;-70
2022/01/30 00:22:54;;;;;;;0.10;0.10;;;6.90;99.90;;;;;;4933346;29;20739;-69
2022/01/30 00:25:33;;;;;;;0.10;0.10;;;6.90;99.90;;;;;;4931678;29;20209;-70
2022/01/30 00:28:06;;;;;;;0.10;0.10;;;7.00;99.90;;;;;;4933368;29;20595;-70
2022/01/30 00:30:35;;;;;;;0.10;0.10;;;7.00;99.90;;;;;;4933236;29;20202;-70
2022/01/30 00:33:05;;;;;;;0.03;0.03;;;7.00;99.90;;;;;;4948044;29;20213;-70
2022/01/30 00:35:36;;;;;;;0.10;0.10;;;7.00;99.90;;;;;;4914793;29;20784;-70
2022/01/30 00:38:10;;;;;;;0.10;0.10;;;6.80;99.90;;;;;;4913129;29;20227;-70
2022/01/30 00:40:38;;;;;;;0.10;0.10;;;6.80;99.90;;;;;;4935503;28;20250;-70
2022/01/30 00:43:10;;;;;;;0.10;0.10;;;6.70;99.90;;;;;;4932302;29;20297;-70
2022/01/30 00:45:38;;;;;;;0.10;0.10;;;6.70;99.90;;;;;;4932935;29;20203;-70
2022/01/30 00:48:07;;;;;;;0.10;0.10;;;6.70;99.90;;;;;;4931838;29;20237;-70
2022/01/30 00:50:36;;;;;;;0.10;0.10;;;6.70;99.90;;;;;;4933102;29;20210;-70
2022/01/30 00:53:04;;;;;;;0.10;0.10;;;6.70;99.90;;;;;;4935341;29;20210;-70
2022/01/30 00:55:33;;;;;;;0.10;0.10;;;6.80;99.90;;;;;;4936865;29;20289;-71
2022/01/30 00:58:02;;;;;;;0.10;0.10;;;6.80;99.90;;;;;;4970752;28;20699;-70
2022/01/30 01:00:32;;;;;;;0.10;0.10;;;6.80;99.90;;;;;;4954360;29;20213;-70
2022/01/30 01:03:00;;;;;;;0.10;0.10;;;6.80;99.90;;;;;;4970817;28;20300;-70
2022/01/30 01:05:31;;;;;;;0.10;0.10;;;6.80;99.90;;;;;;4947567;29;20207;-70
2022/01/30 01:08:02;;;;;;;0.10;0.10;;;6.80;99.90;;;;;;4916416;29;20237;-70
2022/01/30 01:10:36;;;;;;;0.10;0.10;;;6.80;99.90;;;;;;4917657;29;20258;-69
2022/01/30 01:13:22;;;;;;;0.10;0.10;;;6.80;99.90;;;;;;4951569;29;20221;-72
2022/01/30 01:24:09;;;;;;;0.10;0.10;;;6.70;99.90;;;;;;4950920;29;20670;-70
2022/01/30 01:26:38;;;;;;;0.10;0.10;;;6.80;99.90;;;;;;4937989;29;20298;-71
2022/01/30 01:29:08;;;;;;;0.10;0.10;;;6.80;99.90;;;;;;4916266;29;20239;-71
2022/01/30 01:31:37;;;;;;;0.10;0.10;;;6.80;99.90;;;;;;4935996;29;20727;-72
2022/01/30 01:34:22;;;;;;;0.10;0.10;;;6.70;99.90;;;;;;4932771;29;20217;-71
2022/01/30 01:36:50;;;;;;;0.10;0.10;;;6.70;99.90;;;;;;4927143;29;20607;-71
2022/01/30 01:39:18;;;;;;;0.10;0.10;;;6.70;99.90;;;;;;4940108;29;20218;-71
2022/01/30 01:41:46;;;;;;;0.10;0.10;;;6.70;99.90;;;;;;4925221;29;20748;-72
2022/01/30 01:44:23;;;;;;;0.10;0.10;;;6.70;99.90;;;;;;4915775;29;20203;-72
2022/01/30 01:46:52;;;;;;;0.08;0.08;;;6.60;99.90;;;;;;4921485;29;20205;-71
2022/01/30 01:49:26;;;;;;;0.10;0.10;;;6.60;99.90;;;;;;4935606;29;20304;-72
2022/01/30 01:52:14;;;;;;;0.10;0.10;;;6.50;99.90;;;;;;4951071;29;20276;-70
2022/01/30 01:54:43;;;;;;;0.10;0.10;;;6.40;99.90;;;;;;4945360;29;20203;-70
2022/01/30 01:57:11;;;;;;;0.10;0.10;;;6.30;99.90;;;;;;4934379;29;20210;-71
2022/01/30 01:59:49;;;;;;;0.10;0.10;;;6.30;99.90;;;;;;4937192;29;20711;-70
2022/01/30 02:02:40;;;;;;;0.10;0.10;;;6.30;99.90;;;;;;4929462;29;20263;-71
2022/01/30 02:05:10;;;;;;;0.10;0.10;;;6.30;99.90;;;;;;4923050;29;20679;-71
2022/01/30 02:08:08;;;;;;;0.10;0.10;;;6.30;99.90;;;;;;4934114;29;20226;-70
2022/01/30 02:10:46;;;;;;;0.10;0.10;;;6.40;99.90;;;;;;4933629;29;20230;-73
2022/01/30 02:13:44;;;;;;;0.10;0.10;;;6.30;99.90;;;;;;4931740;29;20222;-72
2022/01/30 02:25:06;;;;;;;0.10;0.10;;;5.70;99.90;;;;;;4935380;29;20281;-70
2022/01/30 02:27:35;;;;;;;0.10;0.10;;;5.60;99.90;;;;;;4933466;29;20202;-70
2022/01/30 02:30:08;;;;;;;0.10;0.10;;;5.60;99.90;;;;;;4949875;29;20237;-71
2022/01/30 02:32:35;;;;;;;0.10;0.10;;;5.50;99.90;;;;;;4949622;29;20214;-71
2022/01/30 02:35:04;;;;;;;0.10;0.10;;;5.50;99.90;;;;;;4949803;29;20210;-69
2022/01/30 02:37:32;;;;;;;0.10;0.10;;;5.60;99.90;;;;;;4949217;28;20202;-71
2022/01/30 02:40:04;;;;;;;0.10;0.10;;;5.60;99.90;;;;;;4963652;28;20227;-71
2022/01/30 02:42:34;;;;;;;0.10;0.10;;;5.60;99.90;;;;;;4924930;29;20217;-71
2022/01/30 02:45:06;;;;;;;0.10;0.10;;;5.50;99.90;;;;;;4914814;29;20708;-71
2022/01/30 02:47:51;;;;;;;0.10;0.10;;;5.60;99.90;;;;;;4925761;29;20221;-70
2022/01/30 02:50:33;;;;;;;0.10;0.10;;;5.50;99.90;;;;;;4927976;29;20727;-70
2022/01/30 02:53:03;;;;;;;0.10;0.10;;;5.50;99.90;;;;;;4914489;29;20217;-70
2022/01/30 02:55:33;;;;;;;0.10;0.10;;;5.50;99.90;;;;;;4930183;29;20218;-70
2022/01/30 02:58:02;;;;;;;0.10;0.10;;;5.50;99.90;;;;;;4947759;29;20711;-71
2022/01/30 03:00:29;;;;;;;0.10;0.10;;;5.40;99.90;;;;;;4947577;29;20191;-71
2022/01/30 03:02:57;;;;;;;0.10;0.10;;;5.30;99.90;;;;;;4949279;29;20254;-70
2022/01/30 03:05:26;;;;;;;0.10;0.10;;;5.30;99.90;;;;;;4948953;28;20201;-70
2022/01/30 03:07:57;;;;;;;0.10;0.10;;;5.30;99.90;;;;;;4949475;29;20226;-70
2022/01/30 03:10:29;;;;;;;0.10;0.10;;;5.30;99.90;;;;;;4954517;29;20223;-70
2022/01/30 03:12:58;;;;;;;0.10;0.10;;;5.20;99.90;;;;;;4952829;29;20210;-70
2022/01/30 03:15:26;;;;;;;0.10;0.10;;;5.30;99.90;;;;;;4942272;29;20214;-69
2022/01/30 03:17:54;;;;;;;0.10;0.10;;;5.30;99.90;;;;;;4923947;29;20218;-69
2022/01/30 03:20:23;;;;;;;0.10;0.10;;;5.20;99.90;;;;;;4933830;29;20210;-69
2022/01/30 03:22:51;;;;;;;0.10;0.10;;;5.20;99.90;;;;;;4927542;29;20199;-69
2022/01/30 03:25:19;;;;;;;0.10;0.10;;;5.30;99.90;;;;;;4951022;29;20216;-68
2022/01/30 03:27:52;;;;;;;0.10;0.10;;;5.30;99.90;;;;;;4921310;29;20290;-69
2022/01/30 03:30:28;;;;;;;0.10;0.10;;;5.30;99.90;;;;;;4914251;29;20277;-69
2022/01/30 03:33:05;;;;;;;0.10;0.10;;;5.30;99.90;;;;;;4932184;29;20268;-69
2022/01/30 03:35:34;;;;;;;0.10;0.10;;;5.30;99.90;;;;;;4948867;29;20468;-70
2022/01/30 03:38:03;;;;;;;0.10;0.10;;;5.30;99.90;;;;;;4948530;28;20234;-71
2022/01/30 03:40:33;;;;;;;0.10;0.10;;;5.20;99.90;;;;;;4966736;28;20212;-70
2022/01/30 03:43:02;;;;;;;0.10;0.10;;;5.20;99.90;;;;;;4921968;29;20238;-70
2022/01/30 03:45:32;;;;;;;0.10;0.10;;;5.10;99.90;;;;;;4913461;29;20199;-72
2022/01/30 03:48:02;;;;;;;0.10;0.10;;;5.20;99.90;;;;;;4929277;29;20278;-71
2022/01/30 03:50:45;;;;;;;0.10;0.10;;;5.10;99.90;;;;;;4929533;29;20241;-71
2022/01/30 03:53:14;;;;;;;0.10;0.10;;;5.10;99.90;;;;;;4929535;29;20226;-73
2022/01/30 03:55:42;;;;;;;0.10;0.10;;;5.00;99.90;;;;;;4929450;29;20636;-70
2022/01/30 03:58:19;;;;;;;0.10;0.10;;;5.00;99.90;;;;;;4929568;29;20619;-74
2022/01/30 04:00:49;;;;;;;0.10;0.10;;;5.00;99.90;;;;;;4929642;29;20662;-70
2022/01/30 04:03:17;;;;;;;0.10;0.10;;;5.00;99.90;;;;;;4932468;29;20261;-70
2022/01/30 04:05:46;;;;;;;0.10;0.10;;;5.10;99.90;;;;;;4933705;29;20198;-70
2022/01/30 04:08:14;;;;;;;0.10;0.10;;;5.10;99.90;;;;;;4932558;29;20371;-72
2022/01/30 04:10:51;;;;;;;0.10;0.10;;;5.00;99.90;;;;;;4933832;29;20378;-71
2022/01/30 04:13:23;;;;;;;0.10;0.10;;;5.00;99.90;;;;;;4930873;29;20285;-71
2022/01/30 04:16:19;;;;;;;0.10;0.10;;;5.00;99.90;;;;;;4931304;29;20213;-71
2022/01/30 04:19:05;;;;;;;0.10;0.10;;;5.00;99.90;;;;;;4931753;29;20233;-72
2022/01/30 04:22:12;;;;;;;0.10;0.10;;;5.00;99.90;;;;;;4927524;29;20206;-74
2022/01/30 04:25:02;;;;;;;0.10;0.10;;;5.00;99.90;;;;;;4949158;28;20272;-73
2022/01/30 04:27:54;;;;;;;0.10;0.10;;;5.00;99.90;;;;;;4935045;29;20641;-71
2022/01/30 04:30:49;;;;;;;0.10;0.10;;;5.00;99.90;;;;;;4929001;29;20727;-71
2022/01/30 04:33:31;;;;;;;0.10;0.10;;;5.00;99.90;;;;;;4951897;29;20672;-71
2022/01/30 04:36:15;;;;;;;0.10;0.10;;;5.00;99.90;;;;;;4952090;29;20229;-71
2022/01/30 04:39:07;;;;;;;0.10;0.10;;;5.00;99.90;;;;;;4957615;28;20244;-72
2022/01/30 04:42:04;;;;;;;0.10;0.10;;;5.00;99.90;;;;;;4918550;29;20262;-72
2022/01/30 04:54:52;;;;;;;0.10;0.10;;;5.00;99.90;;;;;;4917716;29;20336;-72
2022/01/30 04:57:37;;;;;;;0.10;0.10;;;5.10;99.90;;;;;;4947352;29;20597;-73
2022/01/30 05:00:32;;;;;;;0.10;0.10;;;5.10;99.90;;;;;;4925781;29;20214;-73
2022/01/30 05:03:28;;;;;;;0.10;0.10;;;5.10;99.90;;;;;;4917952;29;20199;-73
2022/01/30 05:06:19;;;;;;;0.10;0.10;;;5.10;99.90;;;;;;4924683;29;20353;-72
2022/01/30 05:09:04;;;;;;;0.10;0.10;;;5.10;99.90;;;;;;4933426;29;20222;-73
2022/01/30 05:11:42;;;;;;;0.10;0.10;;;5.10;99.90;;;;;;4935105;29;20234;-73
2022/01/30 05:14:35;;;;;;;0.10;0.10;;;5.10;99.90;;;;;;4917443;29;20744;-73
2022/01/30 05:17:24;;;;;;;0.10;0.10;;;5.10;99.90;;;;;;4915753;29;20549;-74
2022/01/30 05:20:15;;;;;;;0.10;0.10;;;5.10;99.90;;;;;;4917125;29;20665;-73
2022/01/30 05:23:10;;;;;;;0.10;0.10;;;5.10;99.90;;;;;;4915870;29;20211;-74
2022/01/30 05:25:52;;;;;;;0.10;0.10;;;5.10;99.90;;;;;;4917159;29;20873;-73
2022/01/30 05:28:23;;;;;;;0.10;0.10;;;5.10;99.90;;;;;;4931306;29;20227;-73
2022/01/30 05:31:02;;;;;;;0.10;0.10;;;5.10;99.90;;;;;;4924699;29;20692;-73
2022/01/30 05:33:47;;;;;;;0.10;0.10;;;5.10;99.90;;;;;;4926377;29;20225;-74
2022/01/30 05:36:43;;;;;;;0.10;0.10;;;5.10;99.90;;;;;;4933103;29;20683;-74
2022/01/30 05:39:31;;;;;;;0.10;0.10;;;5.10;99.90;;;;;;4939760;29;20317;-74
2022/01/30 05:42:19;;;;;;;0.10;0.10;;;5.10;99.90;;;;;;4929951;29;20214;-73
2022/01/30 05:45:14;;;;;;;0.10;0.10;;;5.10;99.90;;;;;;4917000;29;20687;-74
2022/01/30 05:47:59;;;;;;;0.10;0.10;;;5.10;99.90;;;;;;4915142;29;20227;-74
2022/01/30 05:50:44;;;;;;;0.10;0.10;;;5.10;99.90;;;;;;4915268;29;20226;-73
2022/01/30 05:53:23;;;;;;;0.10;0.10;;;5.10;99.90;;;;;;4915194;29;20262;-73
2022/01/30 05:56:09;;;;;;;0.10;0.10;;;5.10;99.90;;;;;;4930882;29;20219;-73
2022/01/30 05:58:37;;;;;;;0.10;0.10;;;5.10;99.90;;;;;;4914907;29;20227;-74
2022/01/30 06:01:18;;;;;;;0.10;0.10;;;5.20;99.90;;;;;;4930335;29;20206;-73
2022/01/30 06:03:47;;;;;;;0.10;0.10;;;5.20;99.90;;;;;;4949984;29;20301;-74
2022/01/30 06:06:15;;;;;;;0.10;0.10;;;5.20;99.90;;;;;;4949823;29;20664;-72
2022/01/30 06:08:46;;;;;;;0.10;0.10;;;5.20;99.90;;;;;;4943699;29;20218;-73
2022/01/30 06:11:15;;;;;;;0.10;0.10;;;5.10;99.90;;;;;;4915063;29;20253;-74
2022/01/30 06:13:43;;;;;;;0.10;0.10;;;5.10;99.90;;;;;;4917850;29;20266;-75
2022/01/30 06:16:11;;;;;;;0.10;0.10;;;5.20;99.90;;;;;;4943685;29;20707;-73
2022/01/30 06:18:43;;;;;;;0.10;0.10;;;5.20;99.90;;;;;;4927965;29;20219;-73
2022/01/30 06:21:29;;;;;;;0.20;0.20;;;5.20;99.90;;;;;;4922414;29;20217;-74
2022/01/30 06:24:16;;;;;;;0.10;0.10;;;5.20;99.90;;;;;;4916206;29;20210;-73
2022/01/30 06:27:04;;;;;;;0.10;0.10;;;5.20;99.90;;;;;;4915729;29;20220;-72
2022/01/30 06:29:54;;;;;;;0.10;0.10;;;5.10;99.90;;;;;;4915667;29;20211;-74
2022/01/30 06:32:42;;;;;;;0.10;0.10;;;5.20;99.90;;;;;;4915686;29;20290;-73
2022/01/30 06:35:42;;;;;;;0.10;0.10;;;5.10;99.90;;;;;;4928856;29;20206;-73
2022/01/30 06:38:24;;;;;;;0.10;0.10;;;5.10;99.90;;;;;;4952474;28;20237;-73
2022/01/30 06:41:24;;;;;;;0.10;0.10;;;5.10;99.90;;;;;;4952074;29;20244;-74
2022/01/30 06:44:11;;;;;;;0.10;0.10;;;5.10;99.90;;;;;;4954021;29;20257;-74
2022/01/30 06:46:58;;;;;;;0.10;0.10;;;5.20;99.90;;;;;;4953817;29;20228;-73
2022/01/30 06:49:52;;;;;;;0.10;0.10;;;5.20;99.90;;;;;;4953706;28;20312;-74
2022/01/30 06:52:52;;;;;;;0.10;0.10;;;5.20;99.90;;;;;;4945227;29;20230;-74
2022/01/30 06:55:43;;;;;;;0.10;0.10;;;5.10;99.90;;;;;;4914962;29;20278;-74
2022/01/30 06:58:29;;;;;;;0.10;0.10;;;5.10;99.90;;;;;;4916218;29;20240;-74
2022/01/30 07:01:16;;;;;;;0.10;0.10;;;5.20;99.90;;;;;;4915515;29;20213;-75
2022/01/30 07:04:05;;;;;;;0.10;0.10;;;5.20;99.90;;;;;;4915312;29;20211;-74
2022/01/30 07:06:51;;;;;;;0.10;0.10;;;5.20;99.90;;;;;;4915007;29;20210;-73
2022/01/30 07:09:19;;;;;;;0.10;0.10;;;5.20;99.90;;;;;;4914942;29;20682;-73
2022/01/30 07:11:47;;;;;;;0.10;0.10;;;5.20;99.90;;;;;;4915778;29;20226;-73
2022/01/30 07:14:14;;;;;;;0.10;0.10;;;5.10;99.90;;;;;;4915071;29;20211;-74
2022/01/30 07:16:44;;;;;;;0.10;0.10;;;5.20;99.90;;;;;;4928074;29;20209;-74
2022/01/30 07:19:12;;;;;;;0.10;0.10;;;5.10;99.90;;;;;;4929091;29;20223;-74
2022/01/30 07:21:40;;;;;;;0.10;0.10;;;5.10;99.90;;;;;;4917487;29;20600;-73
2022/01/30 07:24:08;;;;;;;0.10;0.10;;;5.10;99.90;;;;;;4931919;29;20234;-74
2022/01/30 07:26:37;;;;;;;0.10;0.10;;;5.10;99.90;;;;;;4924352;29;20206;-74
2022/01/30 07:29:05;;;;;;;0.10;0.10;;;5.00;99.90;;;;;;4933478;29;20222;-73
2022/01/30 07:31:33;;;;;;;0.10;0.10;;;5.10;99.90;;;;;;4947206;29;20213;-74
2022/01/30 07:34:03;;;;;;;0.10;0.10;;;5.00;99.90;;;;;;4951423;29;20248;-74
2022/01/30 07:36:34;;;;;;;0.10;0.10;;;5.10;99.90;;;;;;4952376;28;20276;-73
2022/01/30 07:39:05;;;;;;;0.10;0.10;;;5.10;99.90;;;;;;4952744;28;20241;-73
2022/01/30 07:41:35;;;;;;;0.10;0.10;;;5.10;99.90;;;;;;4952974;29;20204;-72
2022/01/30 07:44:06;;;;;;;0.10;0.10;;;5.00;99.90;;;;;;4952845;29;20201;-72
2022/01/30 07:46:36;;;;;;;0.10;0.10;;;5.00;99.90;;;;;;4935890;29;20259;-76
2022/01/30 07:49:05;;;;;;;0.10;0.10;;;5.00;99.90;;;;;;4926992;29;20628;-76
2022/01/30 07:51:33;;;;;;;0.10;0.10;;;5.00;99.90;;;;;;4922197;29;20223;-76
2022/01/30 07:54:01;;;;;;;0.10;0.10;;;5.00;99.90;;;;;;4921753;29;20261;-76
2022/01/30 07:56:29;;;;;;;0.10;0.10;;;4.90;99.90;;;;;;4915022;29;20203;-76
2022/01/30 07:58:56;;;;;;;0.10;0.10;;;5.00;99.90;;;;;;4920438;29;20222;-77
2022/01/30 08:01:24;;;;;;;0.10;0.10;;;4.90;99.90;;;;;;4932406;29;20249;-77
2022/01/30 08:03:52;;;;;;;0.10;0.10;;;4.90;99.90;;;;;;4933691;29;20213;-77
2022/01/30 08:06:22;;;;;;;0.10;0.10;;;5.00;99.90;;;;;;4933269;29;20207;-76
2022/01/30 08:08:50;;;;;;;0.10;0.10;;;5.00;99.90;;;;;;4933656;29;20226;-76
2022/01/30 08:11:18;;;;;;;0.10;0.10;;;5.00;99.90;;;;;;4926916;29;20214;-77
2022/01/30 08:13:45;;;;;;;0.10;0.10;;;5.00;99.90;;;;;;4933525;29;20261;-73
2022/01/30 08:16:14;;;;;;;0.10;0.10;;;5.00;99.90;;;;;;4933072;29;20213;-73
2022/01/30 08:18:42;;;;;;;0.10;0.10;;;5.00;99.90;;;;;;4933251;29;20226;-73
2022/01/30 08:21:10;;;;;;;0.10;0.10;;;5.00;99.90;;;;;;4933064;29;20246;-73
2022/01/30 08:23:39;;;;;;;0.10;0.10;;;5.00;99.90;;;;;;4927056;29;20260;-73
2022/01/30 08:26:07;;;;;;;0.10;0.10;;;5.00;99.90;;;;;;4952296;29;20210;-73
2022/01/30 08:28:35;;;;;;;0.10;0.10;;;5.00;99.90;;;;;;4943758;29;20938;-73
2022/01/30 08:31:03;;;;;;;0.10;0.10;;;5.00;99.90;;;;;;4917969;29;20277;-73
2022/01/30 08:33:31;;;;;;;0.10;0.10;;;5.00;99.90;;;;;;4933432;29;20222;-73
2022/01/30 08:35:58;;;;;;;0.10;0.10;;;5.10;99.90;;;;;;4916302;29;20207;-73
2022/01/30 08:38:26;;;;;;;0.10;0.10;;;5.10;99.90;;;;;;4932393;29;20290;-74
2022/01/30 08:41:01;;;;;;;0.10;0.10;;;5.10;99.90;;;;;;4929164;29;20213;-73
2022/01/30 08:43:30;;;;;;;0.10;0.10;;;5.10;99.90;;;;;;4925639;29;20199;-73
2022/01/30 08:45:59;;;;;;;0.10;0.10;;;5.00;99.90;;;;;;4933474;29;20287;-73
2022/01/30 08:48:27;;;;;;;0.10;0.10;;;5.10;99.90;;;;;;4917130;29;20227;-73
2022/01/30 08:50:55;;;;;;;0.10;0.10;;;5.00;99.90;;;;;;4914537;29;20196;-73
2022/01/30 08:53:23;;;;;;;0.10;0.10;;;5.10;99.90;;;;;;4914162;29;20282;-73
2022/01/30 08:55:51;;;;;;;0.10;0.10;;;5.10;99.90;;;;;;4915167;29;20207;-73
2022/01/30 08:58:20;;;;;;;0.10;0.10;;;5.00;99.90;;;;;;4914201;29;20219;-73
2022/01/30 09:00:48;;;;;;;0.10;0.10;;;5.10;99.90;;;;;;4914907;29;20624;-73
2022/01/30 09:03:16;;;;;;;0.10;0.10;;;5.10;99.90;;;;;;4937382;29;20205;-73
2022/01/30 09:05:44;;;;;;;0.10;0.10;;;5.10;99.90;;;;;;4931967;29;20203;-73
2022/01/30 09:08:13;;;;;;;0.10;0.10;;;5.00;99.90;;;;;;4940783;29;20245;-73
2022/01/30 09:10:42;;;;;;;0.10;0.10;;;5.00;99.90;;;;;;4941684;29;20218;-73
2022/01/30 09:13:09;;;;;;;0.10;0.10;;;5.00;99.90;;;;;;4936455;29;20269;-73
2022/01/30 09:15:41;;;;;;;0.10;0.10;;;5.00;99.90;;;;;;4936502;29;20210;-73
2022/01/30 09:18:11;;;;;;;0.10;0.10;;;5.00;99.90;;;;;;4936308;29;20215;-72
2022/01/30 09:20:40;;;;;;;0.10;0.10;;;5.00;99.90;;;;;;4951769;29;20264;-72
2022/01/30 09:23:10;;;;;;;0.10;0.10;;;5.00;99.90;;;;;;4954066;29;20206;-73
2022/01/30 09:25:43;;;;;;;0.10;0.10;;;5.10;99.90;;;;;;4940676;29;20202;-73
2022/01/30 09:28:11;;;;;;;0.10;0.10;;;5.10;99.90;;;;;;4917375;29;20226;-73
2022/01/30 09:30:40;;;;;;;0.10;0.10;;;5.10;99.90;;;;;;4917039;29;20254;-73
2022/01/30 09:33:08;;;;;;;0.10;0.10;;;5.10;99.90;;;;;;4916469;29;20219;-73
2022/01/30 09:35:36;;;;;;;0.10;0.10;;;5.20;99.90;;;;;;4916474;29;20207;-73
2022/01/30 09:38:03;;;;;;;0.10;0.10;;;5.20;99.90;;;;;;4931523;29;20234;-72
2022/01/30 09:40:31;;;;;;;0.10;0.10;;;5.20;99.90;;;;;;4940387;29;20206;-73
2022/01/30 09:42:59;;;;;;;0.10;0.10;;;5.20;99.90;;;;;;4922320;29;20223;-72
2022/01/30 09:45:28;;;;;;;0.10;0.10;;;5.30;99.90;;;;;;4920105;29;20229;-72
2022/01/30 09:47:58;;;;;;;0.10;0.10;;;5.20;99.90;;;;;;4926647;29;20218;-73
2022/01/30 09:50:28;;;;;;;0.10;0.10;;;5.30;99.90;;;;;;4940099;29;20257;-73
2022/01/30 09:52:56;;;;;;;0.10;0.10;;;5.30;99.90;;;;;;4928484;29;20226;-75
2022/01/30 09:55:24;;;;;;;0.10;0.10;;;5.30;99.90;;;;;;4954910;29;20820;-73
2022/01/30 09:57:53;;;;;;;0.10;0.10;;;5.30;99.90;;;;;;4939388;29;20241;-73
2022/01/30 10:00:21;;;;;;;0.10;0.10;;;5.30;99.90;;;;;;4941917;29;20201;-73
2022/01/30 10:02:49;;;;;;;0.10;0.10;;;5.20;99.90;;;;;;4943582;29;20198;-74
2022/01/30 10:05:20;;;;;;;0.10;0.10;;;5.20;99.90;;;;;;4941713;29;20199;-76
2022/01/30 10:07:52;;;;;;;0.10;0.10;;;5.20;99.90;;;;;;4943171;29;20194;-73
2022/01/30 10:10:23;;;;;;;0.10;0.10;;;5.20;99.90;;;;;;4941719;29;20213;-73
2022/01/30 10:13:06;;;;;;;0.10;0.10;;;5.20;99.90;;;;;;4943140;29;20660;-74
2022/01/30 10:15:50;;;;;;;0.10;0.10;;;5.30;99.90;;;;;;4940916;29;20214;-73
2022/01/30 10:18:19;;;;;;;0.10;0.10;;;5.20;99.90;;;;;;4941309;29;21337;-74
2022/01/30 10:20:49;;;;;;;0.10;0.10;;;5.30;99.90;;;;;;4941050;29;20232;-76
2022/01/30 10:23:17;;;;;;;0.10;0.10;;;5.40;99.90;;;;;;4942979;29;20253;-73
2022/01/30 10:25:54;;;;;;;0.10;0.10;;;5.40;99.90;;;;;;4944193;29;20206;-72
2022/01/30 10:28:28;;;;;;;0.10;0.10;;;5.50;99.90;;;;;;4942454;29;20229;-73
2022/01/30 10:30:58;;;;;;;0.10;0.10;;;5.60;99.90;;;;;;4942305;29;20194;-73
2022/01/30 10:33:40;;;;;;;0.10;0.10;;;5.40;99.90;;;;;;4942594;29;20206;-76
2022/01/30 10:36:11;;;;;;;0.10;0.10;;;5.30;99.90;;;;;;4948258;29;20205;-76
2022/01/30 10:38:46;;;;;;;0.00;0.00;;;5.20;99.90;;;;;;4944543;29;20256;-74
2022/01/30 10:41:18;;;;;;;0.10;0.10;;;5.20;99.90;;;;;;4944620;29;20201;-74
2022/01/30 10:43:55;;;;;;;0.10;0.10;;;5.20;99.90;;;;;;4940926;29;20671;-74
2022/01/30 10:46:25;;;;;;;0.10;0.10;;;5.10;99.90;;;;;;4942805;29;20232;-74
2022/01/30 10:48:55;;;;;;;0.10;0.10;;;5.10;99.90;;;;;;4941997;29;20254;-75
2022/01/30 10:51:25;;;;;;;0.10;0.10;;;5.20;99.90;;;;;;4942639;29;20263;-74
2022/01/30 10:53:53;;;;;;;0.10;0.10;;;5.20;99.90;;;;;;4941147;29;20217;-74
2022/01/30 10:56:25;;;;;;;0.10;0.10;;;5.20;99.90;;;;;;4942172;29;20212;-74
2022/01/30 10:59:10;;;;;;;0.10;0.10;;;5.20;99.90;;;;;;4941570;29;20222;-75
2022/01/30 11:01:39;;;;;;;0.10;0.10;;;5.20;99.90;;;;;;4941915;29;20694;-73
2022/01/30 11:04:07;;;;;;;0.10;0.10;;;5.10;99.90;;;;;;4942976;29;20200;-74
2022/01/30 11:06:40;;;;;;;0.10;0.10;;;5.20;99.90;;;;;;4940673;29;20277;-74
2022/01/30 11:09:12;;;;;;;0.10;0.10;;;5.30;99.90;;;;;;4943037;29;20272;-74
2022/01/30 11:11:44;;;;;;;0.10;0.10;;;5.20;99.90;;;;;;4941441;29;20257;-73
2022/01/30 11:14:19;;;;;;;0.10;0.10;;;5.20;99.90;;;;;;4942781;29;20230;-74
2022/01/30 11:17:07;;;;;;;0.10;0.10;;;5.20;99.90;;;;;;4942994;29;20643;-73
2022/01/30 11:19:38;;;;;;;0.10;0.10;;;5.30;99.90;;;;;;4944336;29;20221;-76
2022/01/30 11:22:08;;;;;;;0.10;0.10;;;5.40;99.90;;;;;;4944823;29;20206;-74
2022/01/30 11:24:46;;;;;;;0.10;0.10;;;5.30;99.90;;;;;;4944972;29;20204;-76
2022/01/30 11:27:14;;;;;;;0.10;0.10;;;5.30;99.90;;;;;;4943358;29;20292;-75
2022/01/30 11:29:43;;;;;;;0.10;0.10;;;5.30;99.90;;;;;;4942529;29;20722;-75
2022/01/30 11:32:11;;;;;;;0.10;0.10;;;5.30;99.90;;;;;;4943436;29;20660;-74
2022/01/30 11:34:41;;;;;;;0.10;0.10;;;5.40;99.90;;;;;;4943338;29;20258;-74
2022/01/30 11:37:13;;;;;;;0.10;0.10;;;5.40;99.90;;;;;;4944589;29;20253;-73
2022/01/30 11:39:44;;;;;;;0.10;0.10;;;5.40;99.90;;;;;;4943856;28;20298;-76
2022/01/30 11:42:15;;;;;;;0.10;0.10;;;5.50;99.90;;;;;;4944651;29;20205;-76
2022/01/30 11:44:44;;;;;;;0.10;0.10;;;5.40;99.90;;;;;;4944899;29;20208;-74
2022/01/30 11:47:24;;;;;;;0.10;0.10;;;5.40;99.90;;;;;;4946467;29;20213;-74
2022/01/30 11:50:03;;;;;;;0.10;0.10;;;5.40;99.90;;;;;;4946065;29;20300;-73
2022/01/30 11:52:56;;;;;;;0.10;0.10;;;5.40;99.90;;;;;;4944769;29;20236;-74
2022/01/30 11:55:49;;;;;;;0.10;0.10;;;5.30;99.90;;;;;;4945689;29;20229;-73
2022/01/30 11:58:55;;;;;;;0.10;0.10;;;5.40;99.90;;;;;;4945312;29;20629;-74
2022/01/30 12:01:37;;;;;;;0.10;0.10;;;5.50;99.90;;;;;;4946378;29;20683;-74
2022/01/30 12:04:17;;;;;;;0.10;0.10;;;5.40;99.90;;;;;;4946236;29;20242;-74
2022/01/30 12:06:47;;;;;;;0.00;0.00;;;5.30;99.90;;;;;;4940620;29;20449;-73
2022/01/30 12:09:29;;;;;;;0.10;0.10;;;5.30;99.90;;;;;;4943276;29;20218;-73
2022/01/30 12:12:08;;;;;;;0.10;0.10;;;5.30;99.90;;;;;;4941811;29;20210;-74
2022/01/30 12:14:46;;;;;;;0.10;0.10;;;5.30;99.90;;;;;;4938381;29;20325;-75
2022/01/30 12:17:14;;;;;;;0.10;0.10;;;5.40;99.90;;;;;;4942628;29;20679;-74
2022/01/30 12:20:05;;;;;;;0.10;0.10;;;5.50;99.90;;;;;;4943326;29;20226;-75
2022/01/30 12:22:41;;;;;;;0.10;0.10;;;5.40;99.90;;;;;;4944493;29;20700;-75
2022/01/30 12:25:39;;;;;;;0.10;0.10;;;5.30;99.90;;;;;;4945246;29;20197;-74
2022/01/30 12:28:14;;;;;;;0.10;0.10;;;5.30;99.90;;;;;;4946366;29;20320;-75
2022/01/30 12:30:49;;;;;;;0.10;0.10;;;5.40;99.90;;;;;;4945807;29;20201;-75
2022/01/30 12:33:42;;;;;;;0.10;0.10;;;5.50;99.90;;;;;;4945382;29;20564;-75
2022/01/30 12:36:23;;;;;;;0.10;0.10;;;5.40;99.90;;;;;;4945351;29;20210;-75
2022/01/30 12:38:57;;;;;;;0.10;0.10;;;5.30;99.90;;;;;;4944651;29;20225;-74
2022/01/30 12:41:28;;;;;;;0.10;0.10;;;5.30;99.90;;;;;;4945080;29;20575;-74
2022/01/30 12:44:01;;;;;;;0.10;0.10;;;5.40;99.90;;;;;;4945899;29;20206;-75
2022/01/30 12:46:31;;;;;;;0.10;0.10;;;5.40;99.90;;;;;;4946205;29;20665;-74
2022/01/30 12:49:09;;;;;;;0.10;0.10;;;5.30;99.90;;;;;;4950410;29;20308;-74
2022/01/30 12:51:40;;;;;;;0.10;0.10;;;5.70;99.90;;;;;;4946552;29;20228;-75
2022/01/30 12:54:09;;;;;;;0.10;0.10;;;6.00;99.90;;;;;;4949608;29;20218;-74
2022/01/30 12:56:38;;;;;;;0.10;0.10;;;5.60;99.90;;;;;;4948121;29;20274;-74
2022/01/30 12:59:07;;;;;;;0.10;0.10;;;5.40;99.90;;;;;;4949162;29;20237;-74
2022/01/30 13:01:39;;;;;;;0.10;0.10;;;5.20;99.90;;;;;;4948739;29;20194;-74
2022/01/30 13:04:11;;;;;;;0.10;0.10;;;5.10;99.90;;;;;;4950732;29;20197;-75
2022/01/30 13:06:41;;;;;;;0.10;0.10;;;5.00;99.90;;;;;;4949548;29;20209;-74
2022/01/30 13:09:11;;;;;;;0.10;0.10;;;5.00;99.90;;;;;;4950430;29;20270;-74
2022/01/30 13:11:40;;;;;;;0.10;0.10;;;5.10;99.90;;;;;;4949327;29;20656;-74
2022/01/30 13:14:10;;;;;;;0.10;0.10;;;5.10;99.90;;;;;;4952303;29;20214;-75
2022/01/30 13:16:41;;;;;;;0.10;0.10;;;5.20;99.90;;;;;;4953127;29;20216;-74
2022/01/30 13:19:11;;;;;;;0.10;0.10;;;5.30;99.90;;;;;;4950993;29;20299;-75
2022/01/30 13:21:44;;;;;;;0.10;0.10;;;5.20;99.90;;;;;;4951992;29;20711;-74
2022/01/30 13:24:18;;;;;;;0.10;0.10;;;5.20;99.90;;;;;;4951017;29;20189;-74
2022/01/30 13:26:49;;;;;;;0.10;0.10;;;5.20;99.90;;;;;;4950186;29;20207;-74
2022/01/30 13:29:20;;;;;;;0.10;0.10;;;5.20;99.90;;;;;;4950790;29;20490;-74
2022/01/30 13:31:49;;;;;;;0.10;0.10;;;5.10;99.90;;;;;;4948332;29;20826;-74
2022/01/30 13:34:23;;;;;;;0.10;0.10;;;5.10;99.90;;;;;;4946870;29;20202;-74
2022/01/30 13:36:54;;;;;;;0.10;0.10;;;5.00;99.90;;;;;;4946741;29;20612;-74
2022/01/30 13:39:29;;;;;;;0.10;0.10;;;5.10;99.90;;;;;;4944103;29;20280;-74
2022/01/30 13:42:29;;;;;;;0.10;0.10;;;5.10;99.90;;;;;;4946645;29;20229;-73
2022/01/30 13:46:55;;;;;;;0.10;0.10;;;5.00;99.90;;;;;;4944077;29;20276;-73
2022/01/30 13:47:56;;;;;;;0.10;0.10;;;5.10;99.90;;;;;;4943288;29;20225;-73
2022/01/30 13:50:26;;;;;;;0.10;0.10;;;5.10;99.90;;;;;;4943113;29;20211;-73
2022/01/30 13:53:02;;;;;;;0.10;0.10;;;5.10;99.90;;;;;;4944739;29;20273;-73
2022/01/30 13:55:30;;;;;;;0.10;0.10;;;5.00;99.90;;;;;;4943730;29;20201;-74
2022/01/30 13:58:00;;;;;;;0.10;0.10;;;5.00;99.90;;;;;;4943614;28;20221;-73
2022/01/30 14:00:31;;;;;;;0.10;0.10;;;5.00;99.90;;;;;;4944740;29;20221;-74
2022/01/30 14:03:00;;;;;;;0.10;0.10;;;4.90;99.90;;;;;;4944447;29;20239;-73